Terminal Aerodrome Forecast
Issued by NWS

Home | Current Version | Previous Version | Text Only | Print | Product List | Glossary On
Versions: 1 2 3 4 5 6 7 8 9 10 11 12 13 14 15 16 17 18 19 20 21 22 23 24 25 26
000
FTUS46 KSEW 261700
TAFSEA
TAF
KSEA 261721Z 2618/2724 35007KT P6SM SKC
     FM270600 03005KT P6SM SKC
     FM271400 VRB03KT P6SM FEW020
     FM271900 35007KT P6SM SKC=

USA.gov is the U.S. government's official web portal to all federal, state and local government web resources and services.